createdAt,value
2018-08-17T00:00:45.367Z,20.62
2018-08-17T00:01:45.367Z,20.66
2018-08-17T00:02:45.362Z,20.66
2018-08-17T00:03:45.366Z,20.66
2018-08-17T00:04:45.369Z,20.66
2018-08-17T00:05:45.374Z,20.80
2018-08-17T00:06:45.379Z,20.69
2018-08-17T00:07:45.381Z,20.77
2018-08-17T00:08:45.386Z,20.82
2018-08-17T00:09:45.394Z,20.80
2018-08-17T00:10:45.393Z,20.75
2018-08-17T00:11:45.600Z,20.70
2018-08-17T00:12:45.605Z,20.74
2018-08-17T00:13:45.421Z,20.72
2018-08-17T00:14:45.614Z,20.77
2018-08-17T00:15:45.414Z,20.75
2018-08-17T00:16:45.622Z,20.62
2018-08-17T00:17:45.434Z,20.63
2018-08-17T00:18:45.429Z,20.72
2018-08-17T00:19:45.634Z,20.69
2018-08-17T00:20:45.435Z,20.65
2018-08-17T00:21:45.442Z,20.63
2018-08-17T00:22:45.445Z,20.58
2018-08-17T00:23:45.450Z,20.62
2018-08-17T00:24:45.677Z,20.63
2018-08-17T00:25:45.485Z,20.56
2018-08-17T00:26:45.483Z,20.60
2018-08-17T00:27:45.679Z,20.62
2018-08-17T00:28:45.688Z,20.58
2018-08-17T00:29:45.484Z,20.50
2018-08-17T00:30:45.489Z,20.58
2018-08-17T00:31:45.485Z,20.55
2018-08-17T00:32:45.698Z,20.55
2018-08-17T00:33:45.508Z,20.59
2018-08-17T00:34:45.512Z,20.51
2018-08-17T00:35:45.509Z,20.63
2018-08-17T00:36:45.705Z,20.52
2018-08-17T00:37:45.519Z,20.59
2018-08-17T00:38:45.532Z,20.62
2018-08-17T00:39:45.546Z,20.60
2018-08-17T00:40:45.722Z,20.69
2018-08-17T00:41:45.524Z,20.65
2018-08-17T00:42:45.529Z,20.56
2018-08-17T00:43:45.530Z,20.65
2018-08-17T00:44:45.546Z,20.59
2018-08-17T00:45:45.540Z,20.66
2018-08-17T00:46:45.560Z,20.62
2018-08-17T00:47:45.597Z,20.63
2018-08-17T00:48:45.552Z,20.66
2018-08-17T00:49:45.758Z,20.59
2018-08-17T00:50:45.561Z,20.63
2018-08-17T00:51:45.566Z,20.67
2018-08-17T00:52:45.570Z,20.66
2018-08-17T00:53:45.575Z,20.63
2018-08-17T00:54:45.577Z,20.63
2018-08-17T00:55:45.783Z,20.75
2018-08-17T00:56:45.597Z,20.66
2018-08-17T00:57:45.591Z,20.66
2018-08-17T00:58:45.596Z,20.62
2018-08-17T00:59:45.599Z,20.70
2018-08-17T01:00:45.614Z,20.67
2018-08-17T01:01:45.617Z,20.72
2018-08-17T01:02:45.611Z,20.65
2018-08-17T01:03:45.630Z,20.67
2018-08-17T01:04:45.638Z,20.67
2018-08-17T01:05:45.627Z,20.66
2018-08-17T01:06:45.630Z,20.66
2018-08-17T01:07:45.634Z,20.66
2018-08-17T01:08:45.838Z,20.67
2018-08-17T01:09:45.642Z,20.72
2018-08-17T01:10:45.664Z,20.74
2018-08-17T01:11:45.649Z,20.67
2018-08-17T01:12:45.868Z,20.72
2018-08-17T01:13:45.688Z,20.72
2018-08-17T01:14:45.688Z,20.67
2018-08-17T01:15:45.689Z,20.81
2018-08-17T01:16:45.678Z,20.78
2018-08-17T01:17:45.685Z,20.77
2018-08-17T01:18:45.679Z,20.81
2018-08-17T01:19:45.684Z,20.80
2018-08-17T01:20:45.709Z,20.82
2018-08-17T01:21:45.726Z,20.82
2018-08-17T01:22:45.933Z,20.82
2018-08-17T01:23:45.904Z,20.84
2018-08-17T01:24:45.908Z,20.78
2018-08-17T01:25:45.710Z,20.84
2018-08-17T01:26:45.746Z,20.78
2018-08-17T01:27:45.750Z,20.74
2018-08-17T01:28:45.724Z,20.81
2018-08-17T01:29:45.766Z,20.81
2018-08-17T01:30:45.731Z,20.77
2018-08-17T01:31:45.936Z,20.74
2018-08-17T01:32:45.773Z,20.81
2018-08-17T01:33:45.947Z,20.70
2018-08-17T01:34:45.749Z,20.82
2018-08-17T01:35:45.771Z,20.77
2018-08-17T01:36:45.760Z,20.80
2018-08-17T01:37:45.772Z,20.72
2018-08-17T01:38:45.769Z,20.70
2018-08-17T01:39:45.786Z,20.75
2018-08-17T01:40:45.792Z,20.74
2018-08-17T01:41:45.984Z,20.78
2018-08-17T01:42:45.785Z,20.75
2018-08-17T01:43:45.788Z,20.67
2018-08-17T01:44:45.802Z,20.51
2018-08-17T01:45:45.797Z,20.37
2018-08-17T01:46:45.802Z,20.34
2018-08-17T01:47:46.005Z,20.31
2018-08-17T01:48:45.807Z,20.32
2018-08-17T01:49:45.813Z,20.22
2018-08-17T01:50:45.817Z,20.10
2018-08-17T01:51:46.023Z,20.10
2018-08-17T01:52:45.826Z,20.11
2018-08-17T01:53:46.030Z,20.09
2018-08-17T01:54:45.844Z,20.09
2018-08-17T01:55:46.040Z,20.14
2018-08-17T01:56:46.056Z,20.16
2018-08-17T01:57:45.855Z,20.14
2018-08-17T01:58:45.847Z,20.11
2018-08-17T01:59:46.066Z,20.10
2018-08-17T02:00:45.853Z,19.99
2018-08-17T02:01:46.062Z,19.95
2018-08-17T02:02:45.863Z,20.03
2018-08-17T02:03:45.875Z,20.03
2018-08-17T02:04:45.878Z,20.09
2018-08-17T02:05:45.870Z,20.06
2018-08-17T02:06:45.876Z,20.06
2018-08-17T02:07:45.888Z,19.96
2018-08-17T02:08:45.891Z,20.00
2018-08-17T02:09:46.088Z,20.00
2018-08-17T02:10:45.887Z,20.00
2018-08-17T02:11:45.903Z,19.91
2018-08-17T02:12:45.892Z,19.88
2018-08-17T02:13:46.099Z,19.91
2018-08-17T02:14:45.987Z,19.84
2018-08-17T02:15:46.132Z,19.77
2018-08-17T02:16:45.921Z,19.82
2018-08-17T02:17:45.918Z,19.82
2018-08-17T02:18:46.122Z,19.77
2018-08-17T02:19:45.911Z,19.74
2018-08-17T02:20:45.930Z,19.63
2018-08-17T02:21:45.919Z,19.70
2018-08-17T02:22:45.938Z,19.73
2018-08-17T02:23:46.126Z,19.64
2018-08-17T02:24:46.129Z,19.64
2018-08-17T02:25:46.144Z,19.63
2018-08-17T02:26:45.951Z,19.59
2018-08-17T02:27:45.958Z,19.47
2018-08-17T02:28:45.936Z,19.52
2018-08-17T02:29:46.143Z,19.37
2018-08-17T02:30:45.946Z,19.36
2018-08-17T02:31:45.961Z,19.31
2018-08-17T02:32:45.962Z,19.34
2018-08-17T02:33:46.162Z,19.33
2018-08-17T02:34:45.955Z,19.31
2018-08-17T02:35:45.985Z,19.29
2018-08-17T02:36:45.957Z,19.26
2018-08-17T02:37:46.182Z,19.18
2018-08-17T02:38:45.962Z,19.19
2018-08-17T02:39:45.967Z,19.16
2018-08-17T02:40:45.970Z,19.19
2018-08-17T02:41:45.994Z,19.11
2018-08-17T02:42:45.982Z,19.08
2018-08-17T02:43:45.984Z,19.11
2018-08-17T02:44:46.180Z,19.04
2018-08-17T02:45:46.195Z,19.08
2018-08-17T02:46:46.193Z,19.04
2018-08-17T02:47:46.015Z,19.07
2018-08-17T02:48:45.994Z,18.95
2018-08-17T02:49:46.198Z,18.96
2018-08-17T02:50:45.989Z,18.92
2018-08-17T02:51:46.022Z,18.95
2018-08-17T02:52:46.194Z,19.00
2018-08-17T02:53:45.995Z,18.92
2018-08-17T02:54:45.998Z,18.90
2018-08-17T02:55:45.999Z,18.92
2018-08-17T02:56:46.012Z,18.89
2018-08-17T02:57:46.002Z,18.90
2018-08-17T02:58:46.004Z,18.90
2018-08-17T02:59:46.219Z,18.92
2018-08-17T03:00:46.010Z,18.98
2018-08-17T03:01:46.019Z,19.00
2018-08-17T03:02:46.012Z,18.99
2018-08-17T03:03:46.024Z,18.92
2018-08-17T03:04:46.015Z,18.92
2018-08-17T03:05:46.218Z,18.90
2018-08-17T03:06:46.237Z,18.92
2018-08-17T03:07:46.026Z,18.83
2018-08-17T03:08:46.022Z,18.86
2018-08-17T03:09:46.024Z,18.90
2018-08-17T03:10:46.038Z,18.92
2018-08-17T03:11:46.054Z,18.93
2018-08-17T03:12:46.231Z,18.86
2018-08-17T03:13:46.031Z,18.88
2018-08-17T03:14:46.235Z,18.89
2018-08-17T03:15:46.036Z,18.90
2018-08-17T03:16:46.052Z,18.93
2018-08-17T03:17:46.057Z,18.98
2018-08-17T03:18:46.054Z,18.98
2018-08-17T03:19:46.062Z,18.95
2018-08-17T03:20:46.055Z,18.96
2018-08-17T03:21:46.043Z,18.96
2018-08-17T03:22:46.264Z,18.92
2018-08-17T03:23:46.046Z,18.95
2018-08-17T03:24:46.059Z,18.93
2018-08-17T03:25:46.060Z,18.96
2018-08-17T03:26:46.064Z,18.98
2018-08-17T03:27:46.052Z,18.96
2018-08-17T03:28:46.067Z,18.93
2018-08-17T03:29:46.261Z,18.98
2018-08-17T03:30:46.067Z,18.96
2018-08-17T03:31:46.059Z,18.98
2018-08-17T03:32:46.060Z,18.95
2018-08-17T03:33:46.063Z,18.89
2018-08-17T03:34:46.065Z,18.96
2018-08-17T03:35:46.270Z,18.96
2018-08-17T03:36:46.066Z,18.92
2018-08-17T03:37:46.281Z,18.83
2018-08-17T03:38:46.284Z,18.88
2018-08-17T03:39:46.073Z,18.81
2018-08-17T03:40:46.073Z,18.81
2018-08-17T03:41:46.288Z,18.75
2018-08-17T03:42:46.086Z,18.81
2018-08-17T03:43:46.077Z,18.81
2018-08-17T03:44:46.092Z,18.71
2018-08-17T03:45:46.083Z,18.70
2018-08-17T03:46:46.094Z,18.66
2018-08-17T03:47:46.286Z,18.71
2018-08-17T03:48:46.097Z,18.71
2018-08-17T03:49:46.104Z,18.65
2018-08-17T03:50:46.090Z,18.60
2018-08-17T03:51:46.091Z,18.62
2018-08-17T03:52:46.297Z,18.66
2018-08-17T03:53:46.296Z,18.68
2018-08-17T03:54:46.110Z,18.60
2018-08-17T03:55:46.110Z,18.60
2018-08-17T03:56:46.098Z,18.63
2018-08-17T03:57:46.098Z,18.65
2018-08-17T03:58:46.112Z,18.63
2018-08-17T03:59:46.103Z,18.59
2018-08-17T04:00:46.306Z,18.62
2018-08-17T04:01:46.308Z,18.63
2018-08-17T04:02:46.310Z,18.63
2018-08-17T04:03:46.108Z,18.60
2018-08-17T04:04:46.341Z,18.75
2018-08-17T04:05:46.111Z,18.65
2018-08-17T04:06:46.113Z,18.62
2018-08-17T04:07:46.116Z,18.62
2018-08-17T04:08:46.126Z,18.71
2018-08-17T04:09:46.128Z,18.65
2018-08-17T04:10:46.119Z,18.66
2018-08-17T04:11:46.120Z,18.60
2018-08-17T04:12:46.133Z,18.68
2018-08-17T04:13:46.135Z,18.73
2018-08-17T04:14:46.128Z,18.65
2018-08-17T04:15:46.131Z,18.62
2018-08-17T04:16:46.330Z,18.58
2018-08-17T04:17:46.158Z,18.66
2018-08-17T04:18:46.334Z,18.65
2018-08-17T04:19:46.345Z,18.65
2018-08-17T04:20:46.148Z,18.62
2018-08-17T04:21:46.147Z,18.74
2018-08-17T04:22:46.141Z,18.63
2018-08-17T04:23:46.166Z,18.74
2018-08-17T04:24:46.150Z,18.80
2018-08-17T04:25:46.156Z,18.78
2018-08-17T04:26:46.161Z,18.88
2018-08-17T04:27:46.349Z,18.78
2018-08-17T04:28:46.146Z,18.80
2018-08-17T04:29:46.159Z,18.78
2018-08-17T04:30:46.151Z,18.83
2018-08-17T04:31:46.160Z,18.84
2018-08-17T04:32:46.355Z,18.80
2018-08-17T04:33:46.155Z,18.77
2018-08-17T04:34:46.158Z,18.80
2018-08-17T04:35:46.159Z,18.80
2018-08-17T04:36:46.169Z,18.80
2018-08-17T04:37:46.159Z,18.77
2018-08-17T04:38:46.192Z,18.77
2018-08-17T04:39:46.163Z,18.81
2018-08-17T04:40:46.365Z,18.84
2018-08-17T04:41:46.176Z,18.83
2018-08-17T04:42:46.168Z,18.88
2018-08-17T04:43:46.270Z,18.88
2018-08-17T04:44:46.170Z,18.92
2018-08-17T04:45:46.374Z,18.88
2018-08-17T04:46:46.174Z,18.93
2018-08-17T04:47:46.392Z,18.90
2018-08-17T04:48:46.179Z,18.95
2018-08-17T04:49:46.383Z,18.93
2018-08-17T04:50:46.383Z,18.95
2018-08-17T04:51:46.185Z,18.93
2018-08-17T04:52:46.186Z,18.96
2018-08-17T04:53:46.196Z,18.96
2018-08-17T04:54:46.189Z,18.96
2018-08-17T04:55:46.190Z,18.92
2018-08-17T04:56:46.394Z,18.95
2018-08-17T04:57:46.213Z,19.02
2018-08-17T04:58:46.221Z,18.95
2018-08-17T04:59:46.206Z,18.93
2018-08-17T05:00:46.200Z,18.96
2018-08-17T05:01:46.203Z,18.93
2018-08-17T05:02:46.204Z,18.92
2018-08-17T05:03:46.220Z,19.00
2018-08-17T05:04:46.431Z,19.02
2018-08-17T05:05:46.219Z,19.14
2018-08-17T05:06:46.227Z,19.08
2018-08-17T05:07:46.415Z,19.07
2018-08-17T05:08:46.228Z,19.02
2018-08-17T05:09:46.229Z,19.12
2018-08-17T05:10:46.215Z,19.09
2018-08-17T05:11:46.219Z,19.04
2018-08-17T05:12:46.219Z,19.14
2018-08-17T05:13:46.226Z,19.15
2018-08-17T05:14:46.259Z,19.16
2018-08-17T05:15:46.227Z,19.04
2018-08-17T05:16:46.253Z,19.09
2018-08-17T05:17:46.238Z,19.08
2018-08-17T05:18:46.239Z,19.15
2018-08-17T05:19:46.233Z,19.00
2018-08-17T05:20:46.234Z,19.04
2018-08-17T05:21:46.235Z,19.02
2018-08-17T05:22:46.241Z,18.93
2018-08-17T05:23:46.251Z,18.92
2018-08-17T05:24:46.250Z,18.99
2018-08-17T05:25:46.242Z,19.00
2018-08-17T05:26:46.265Z,18.95
2018-08-17T05:27:46.265Z,18.95
2018-08-17T05:28:46.448Z,18.98
2018-08-17T05:29:46.258Z,18.89
2018-08-17T05:30:46.464Z,18.77
2018-08-17T05:31:46.250Z,18.81
2018-08-17T05:32:46.252Z,18.73
2018-08-17T05:33:46.284Z,18.66
2018-08-17T05:34:46.286Z,18.65
2018-08-17T05:35:46.260Z,18.63
2018-08-17T05:36:46.462Z,18.56
2018-08-17T05:37:46.493Z,18.52
2018-08-17T05:38:46.264Z,18.50
2018-08-17T05:39:46.293Z,18.31
2018-08-17T05:40:46.279Z,18.35
2018-08-17T05:41:46.297Z,18.33
2018-08-17T05:42:46.269Z,18.22
2018-08-17T05:43:46.268Z,18.23
2018-08-17T05:44:46.287Z,18.15
2018-08-17T05:45:46.273Z,18.11
2018-08-17T05:46:46.278Z,18.10
2018-08-17T05:47:46.277Z,18.04
2018-08-17T05:48:46.489Z,17.98
2018-08-17T05:49:46.290Z,17.90
2018-08-17T05:50:46.312Z,17.87
2018-08-17T05:51:46.495Z,17.95
2018-08-17T05:52:46.298Z,17.76
2018-08-17T05:53:46.299Z,17.70
2018-08-17T05:54:46.493Z,17.72
2018-08-17T05:55:46.288Z,17.63
2018-08-17T05:56:46.366Z,17.52
2018-08-17T05:57:46.494Z,17.51
2018-08-17T05:58:46.298Z,17.48
2018-08-17T05:59:46.296Z,17.51
2018-08-17T06:00:46.297Z,17.52
2018-08-17T06:01:46.315Z,17.49
2018-08-17T06:02:46.348Z,17.56
2018-08-17T06:03:46.312Z,17.59
2018-08-17T06:04:46.302Z,17.56
2018-08-17T06:05:46.316Z,17.52
2018-08-17T06:06:46.307Z,17.57
2018-08-17T06:07:46.309Z,17.54
2018-08-17T06:08:46.309Z,17.57
2018-08-17T06:09:46.330Z,17.52
2018-08-17T06:10:46.544Z,17.59
2018-08-17T06:11:46.366Z,17.65
2018-08-17T06:12:46.315Z,17.59
2018-08-17T06:13:46.534Z,17.65
2018-08-17T06:14:46.322Z,17.60
2018-08-17T06:15:46.524Z,17.64
2018-08-17T06:16:46.524Z,17.64
2018-08-17T06:17:46.354Z,17.70
2018-08-17T06:18:46.326Z,17.70
2018-08-17T06:19:46.337Z,17.67
2018-08-17T06:20:46.330Z,17.71
2018-08-17T06:21:46.349Z,17.57
2018-08-17T06:22:46.535Z,17.68
2018-08-17T06:23:46.336Z,17.64
2018-08-17T06:24:46.347Z,17.60
2018-08-17T06:25:46.360Z,17.64
2018-08-17T06:26:46.342Z,17.60
2018-08-17T06:27:46.342Z,17.57
2018-08-17T06:28:46.357Z,17.49
2018-08-17T06:29:46.374Z,17.54
2018-08-17T06:30:46.360Z,17.52
2018-08-17T06:31:46.439Z,17.52
2018-08-17T06:32:46.355Z,17.52
2018-08-17T06:33:46.367Z,17.64
2018-08-17T06:34:46.360Z,17.52
2018-08-17T06:35:46.375Z,17.57
2018-08-17T06:36:46.363Z,17.56
2018-08-17T06:37:46.569Z,17.51
2018-08-17T06:38:46.580Z,17.51
2018-08-17T06:39:46.584Z,17.60
2018-08-17T06:40:46.372Z,17.54
2018-08-17T06:41:46.374Z,17.49
2018-08-17T06:42:46.390Z,17.56
2018-08-17T06:43:46.380Z,17.57
2018-08-17T06:44:46.596Z,17.52
2018-08-17T06:45:46.384Z,17.64
2018-08-17T06:46:46.397Z,17.63
2018-08-17T06:47:46.387Z,17.68
2018-08-17T06:48:46.391Z,17.59
2018-08-17T06:49:46.408Z,17.51
2018-08-17T06:50:46.649Z,17.60
2018-08-17T06:51:46.398Z,17.60
2018-08-17T06:52:46.417Z,17.60
2018-08-17T06:53:46.404Z,17.74
2018-08-17T06:54:46.417Z,17.74
2018-08-17T06:55:46.430Z,17.70
2018-08-17T06:56:46.655Z,17.67
2018-08-17T06:57:46.628Z,17.78
2018-08-17T06:58:46.417Z,17.74
2018-08-17T06:59:46.621Z,17.76
2018-08-17T07:00:46.420Z,17.57
2018-08-17T07:01:46.439Z,17.63
2018-08-17T07:02:46.438Z,17.64
2018-08-17T07:03:46.632Z,17.65
2018-08-17T07:04:46.434Z,17.71
2018-08-17T07:05:46.436Z,17.70
2018-08-17T07:06:46.640Z,17.71
2018-08-17T07:07:46.441Z,17.76
2018-08-17T07:08:46.584Z,17.72
2018-08-17T07:09:46.649Z,17.70
2018-08-17T07:10:46.448Z,17.65
2018-08-17T07:11:46.454Z,17.70
2018-08-17T07:12:46.456Z,17.65
2018-08-17T07:13:46.669Z,17.68
2018-08-17T07:14:46.662Z,17.67
2018-08-17T07:15:46.461Z,17.76
2018-08-17T07:16:46.526Z,17.76
2018-08-17T07:17:46.470Z,17.87
2018-08-17T07:18:46.673Z,17.85
2018-08-17T07:19:46.677Z,17.85
2018-08-17T07:20:46.690Z,17.92
2018-08-17T07:21:46.685Z,17.94
2018-08-17T07:22:46.498Z,17.89
2018-08-17T07:23:46.494Z,17.89
2018-08-17T07:24:46.515Z,17.89
2018-08-17T07:25:46.492Z,17.90
2018-08-17T07:26:46.540Z,18.04
2018-08-17T07:27:46.531Z,18.04
2018-08-17T07:28:46.501Z,18.08
2018-08-17T07:29:46.533Z,18.13
2018-08-17T07:30:46.508Z,18.28
2018-08-17T07:31:46.710Z,18.34
2018-08-17T07:32:46.528Z,18.35
2018-08-17T07:33:46.716Z,18.29
2018-08-17T07:34:46.730Z,18.29
2018-08-17T07:35:46.726Z,18.31
2018-08-17T07:36:46.522Z,18.40
2018-08-17T07:37:46.728Z,18.37
2018-08-17T07:38:46.529Z,18.38
2018-08-17T07:39:46.536Z,18.44
2018-08-17T07:40:46.748Z,18.38
2018-08-17T07:41:46.652Z,18.40
2018-08-17T07:42:46.744Z,18.43
2018-08-17T07:43:46.746Z,18.41
2018-08-17T07:44:46.751Z,18.45
2018-08-17T07:45:46.552Z,18.52
2018-08-17T07:46:46.566Z,18.53
2018-08-17T07:47:46.831Z,18.59
2018-08-17T07:48:46.570Z,18.60
2018-08-17T07:49:46.765Z,18.63
2018-08-17T07:50:46.779Z,18.55
2018-08-17T07:51:46.584Z,18.59
2018-08-17T07:52:46.596Z,18.58
2018-08-17T07:53:46.575Z,18.58
2018-08-17T07:54:46.593Z,18.65
2018-08-17T07:55:46.799Z,18.59
2018-08-17T07:56:46.800Z,18.60
2018-08-17T07:57:46.589Z,18.55
2018-08-17T07:58:46.805Z,18.65
2018-08-17T07:59:46.625Z,18.60
2018-08-17T08:00:46.599Z,18.55
2018-08-17T08:01:46.600Z,18.60
2018-08-17T08:02:46.808Z,18.62
2018-08-17T08:03:46.819Z,18.59
2018-08-17T08:04:46.816Z,18.74
2018-08-17T08:05:46.621Z,18.84
2018-08-17T08:06:46.617Z,18.88
2018-08-17T08:07:46.620Z,18.93
2018-08-17T08:08:46.826Z,18.98
2018-08-17T08:09:46.625Z,18.96
2018-08-17T08:10:46.831Z,18.99
2018-08-17T08:11:46.834Z,18.98
2018-08-17T08:12:46.636Z,19.08
2018-08-17T08:13:46.725Z,19.07
2018-08-17T08:14:46.844Z,19.08
2018-08-17T08:15:46.644Z,19.15
2018-08-17T08:16:46.662Z,19.14
2018-08-17T08:17:46.651Z,19.16
2018-08-17T08:18:46.667Z,19.21
2018-08-17T08:19:46.657Z,19.21
2018-08-17T08:20:46.671Z,19.21
2018-08-17T08:21:46.663Z,19.18
2018-08-17T08:22:46.677Z,19.15
2018-08-17T08:23:46.871Z,19.14
2018-08-17T08:24:46.674Z,19.22
2018-08-17T08:25:46.675Z,19.11
2018-08-17T08:26:46.691Z,19.04
2018-08-17T08:27:46.899Z,19.11
2018-08-17T08:28:46.697Z,19.15
2018-08-17T08:29:46.690Z,19.12
2018-08-17T08:30:46.901Z,19.14
2018-08-17T08:31:46.899Z,19.26
2018-08-17T08:32:46.900Z,19.22
2018-08-17T08:33:46.728Z,19.29
2018-08-17T08:34:46.703Z,18.99
2018-08-17T08:35:46.716Z,18.93
2018-08-17T08:36:46.708Z,18.93
2018-08-17T08:37:46.912Z,18.99
2018-08-17T08:38:46.729Z,18.95
2018-08-17T08:39:46.718Z,19.02
2018-08-17T08:40:46.921Z,18.92
2018-08-17T08:41:46.732Z,18.93
2018-08-17T08:42:46.736Z,18.88
2018-08-17T08:43:46.928Z,18.80
2018-08-17T08:44:46.729Z,18.81
2018-08-17T08:45:46.757Z,18.80
2018-08-17T08:46:46.736Z,18.78
2018-08-17T08:47:46.740Z,18.86
2018-08-17T08:48:46.751Z,18.78
2018-08-17T08:49:46.754Z,18.77
2018-08-17T08:50:46.757Z,18.73
2018-08-17T08:51:46.747Z,18.81
2018-08-17T08:52:46.954Z,18.78
2018-08-17T08:53:46.768Z,18.74
2018-08-17T08:54:46.758Z,18.68
2018-08-17T08:55:46.760Z,18.63
2018-08-17T08:56:46.965Z,18.68
2018-08-17T08:57:46.765Z,18.63
2018-08-17T08:58:46.778Z,18.70
2018-08-17T08:59:46.771Z,18.75
2018-08-17T09:00:46.775Z,18.70
2018-08-17T09:01:46.856Z,18.73
2018-08-17T09:02:46.777Z,18.73
2018-08-17T09:03:46.982Z,18.75
2018-08-17T09:04:46.796Z,18.78
2018-08-17T09:05:46.797Z,18.77
2018-08-17T09:06:46.802Z,18.84
2018-08-17T09:07:46.790Z,18.96
2018-08-17T09:08:46.804Z,19.04
2018-08-17T09:09:46.806Z,19.19
2018-08-17T09:10:46.799Z,19.37
2018-08-17T09:11:47.017Z,19.36
2018-08-17T09:12:47.004Z,19.37
2018-08-17T09:13:47.114Z,19.33
2018-08-17T09:14:46.821Z,19.37
2018-08-17T09:15:47.018Z,19.19
2018-08-17T09:16:46.816Z,19.08
2018-08-17T09:17:47.034Z,18.96
2018-08-17T09:18:46.825Z,18.96
2018-08-17T09:19:46.822Z,19.08
2018-08-17T09:20:47.103Z,19.12
2018-08-17T09:21:47.030Z,19.07
2018-08-17T09:22:46.845Z,19.02
2018-08-17T09:23:46.843Z,19.02
2018-08-17T09:24:47.038Z,18.98
2018-08-17T09:25:46.855Z,18.98
2018-08-17T09:26:46.844Z,18.95
2018-08-17T09:27:46.858Z,18.81
2018-08-17T09:28:46.848Z,18.80
2018-08-17T09:29:47.053Z,18.80
2018-08-17T09:30:46.854Z,18.73
2018-08-17T09:31:47.058Z,18.47
2018-08-17T09:32:46.889Z,18.44
2018-08-17T09:33:46.862Z,18.38
2018-08-17T09:34:46.866Z,18.41
2018-08-17T09:35:46.882Z,18.37
2018-08-17T09:36:47.083Z,18.33
2018-08-17T09:37:46.874Z,18.49
2018-08-17T09:38:46.898Z,18.55
2018-08-17T09:39:47.077Z,18.49
2018-08-17T09:40:46.879Z,18.43
2018-08-17T09:41:46.905Z,18.33
2018-08-17T09:42:46.892Z,18.38
2018-08-17T09:43:46.888Z,18.37
2018-08-17T09:44:46.902Z,18.47
2018-08-17T09:45:46.890Z,18.49
2018-08-17T09:46:47.095Z,18.41
2018-08-17T09:47:46.896Z,18.37
2018-08-17T09:48:46.909Z,18.43
2018-08-17T09:49:47.131Z,18.29
2018-08-17T09:50:47.104Z,18.38
2018-08-17T09:51:46.903Z,18.33
2018-08-17T09:52:46.907Z,18.37
2018-08-17T09:53:46.918Z,18.50
2018-08-17T09:54:47.112Z,18.43
2018-08-17T09:55:46.912Z,18.47
2018-08-17T09:56:46.924Z,18.35
2018-08-17T09:57:46.917Z,18.35
2018-08-17T09:58:46.932Z,18.40
2018-08-17T09:59:47.139Z,18.34
2018-08-17T10:00:46.924Z,18.43
2018-08-17T10:01:46.924Z,18.47
2018-08-17T10:02:46.927Z,18.45
2018-08-17T10:03:47.029Z,18.37
2018-08-17T10:04:46.946Z,18.47
2018-08-17T10:05:47.135Z,18.49
2018-08-17T10:06:46.951Z,18.41
2018-08-17T10:07:46.959Z,18.33
2018-08-17T10:08:46.937Z,18.31
2018-08-17T10:09:46.953Z,18.28
2018-08-17T10:10:46.941Z,18.20
2018-08-17T10:11:46.942Z,18.26
2018-08-17T10:12:46.953Z,18.35
2018-08-17T10:13:46.958Z,18.37
2018-08-17T10:14:46.950Z,18.19
2018-08-17T10:15:47.256Z,18.28
2018-08-17T10:16:46.963Z,18.35
2018-08-17T10:17:46.981Z,18.28
2018-08-17T10:18:46.974Z,18.35
2018-08-17T10:19:46.960Z,18.26
2018-08-17T10:20:47.079Z,18.40
2018-08-17T10:21:47.299Z,18.35
2018-08-17T10:22:46.976Z,18.34
2018-08-17T10:23:46.994Z,18.23
2018-08-17T10:24:46.986Z,18.35
2018-08-17T10:25:47.196Z,18.40
2018-08-17T10:26:46.979Z,18.31
2018-08-17T10:27:46.981Z,18.37
2018-08-17T10:28:46.988Z,18.35
2018-08-17T10:29:47.192Z,18.44
2018-08-17T10:30:46.976Z,18.35
2018-08-17T10:31:46.988Z,18.44
2018-08-17T10:32:46.978Z,18.49
2018-08-17T10:33:46.991Z,18.60
2018-08-17T10:34:46.983Z,18.60
2018-08-17T10:35:46.986Z,18.73
2018-08-17T10:36:47.198Z,18.68
2018-08-17T10:37:46.999Z,18.78
2018-08-17T10:38:47.202Z,18.77
2018-08-17T10:39:46.992Z,18.78
2018-08-17T10:40:47.022Z,18.86
2018-08-17T10:41:47.195Z,18.89
2018-08-17T10:42:46.997Z,18.90
2018-08-17T10:43:47.200Z,18.88
2018-08-17T10:44:47.204Z,18.95
2018-08-17T10:45:47.016Z,19.02
2018-08-17T10:46:47.005Z,18.93
2018-08-17T10:47:47.208Z,19.04
2018-08-17T10:48:47.258Z,19.12
2018-08-17T10:49:47.211Z,19.07
2018-08-17T10:50:47.214Z,19.14
2018-08-17T10:51:47.024Z,19.16
2018-08-17T10:52:47.015Z,19.19
2018-08-17T10:53:47.017Z,19.16
2018-08-17T10:54:47.027Z,19.19
2018-08-17T10:55:47.025Z,19.19
2018-08-17T10:56:47.025Z,19.21
2018-08-17T10:57:47.025Z,19.36
2018-08-17T10:58:47.042Z,19.41
2018-08-17T10:59:47.230Z,19.31
2018-08-17T11:00:47.232Z,19.30
2018-08-17T11:01:47.047Z,19.16
2018-08-17T11:02:47.238Z,19.18
2018-08-17T11:03:47.037Z,19.16
2018-08-17T11:04:47.067Z,19.15
2018-08-17T11:05:47.244Z,19.12
2018-08-17T11:06:47.040Z,19.14
2018-08-17T11:07:47.053Z,19.08
2018-08-17T11:08:47.060Z,19.21
2018-08-17T11:09:47.046Z,19.26
2018-08-17T11:10:47.053Z,19.18
2018-08-17T11:11:47.050Z,19.27
2018-08-17T11:12:47.053Z,19.40
2018-08-17T11:13:47.057Z,19.40
2018-08-17T11:14:47.073Z,19.41
2018-08-17T11:15:47.272Z,19.41
2018-08-17T11:16:47.076Z,19.36
2018-08-17T11:17:47.276Z,19.37
2018-08-17T11:18:47.066Z,19.26
2018-08-17T11:19:47.079Z,19.21
2018-08-17T11:20:47.271Z,19.30
2018-08-17T11:21:47.089Z,19.27
2018-08-17T11:22:47.289Z,19.40
2018-08-17T11:23:47.074Z,19.31
2018-08-17T11:24:47.281Z,19.47
2018-08-17T11:25:47.081Z,19.45
2018-08-17T11:26:47.082Z,19.48
2018-08-17T11:27:47.315Z,19.45
2018-08-17T11:28:47.087Z,19.49
2018-08-17T11:29:47.291Z,19.56
2018-08-17T11:30:47.094Z,19.47
2018-08-17T11:31:47.092Z,19.49
2018-08-17T11:32:47.094Z,19.47
2018-08-17T11:33:47.147Z,19.62
2018-08-17T11:34:47.303Z,19.49
2018-08-17T11:35:47.303Z,19.41
2018-08-17T11:36:47.109Z,19.45
2018-08-17T11:37:47.119Z,19.29
2018-08-17T11:38:47.110Z,19.27
2018-08-17T11:39:47.312Z,19.22
2018-08-17T11:40:47.112Z,19.18
2018-08-17T11:41:47.116Z,19.14
2018-08-17T11:42:47.118Z,19.09
2018-08-17T11:43:47.120Z,19.00
2018-08-17T11:44:47.325Z,19.04
2018-08-17T11:45:47.126Z,19.04
2018-08-17T11:46:47.127Z,19.00
2018-08-17T11:47:47.344Z,19.15
2018-08-17T11:48:47.140Z,19.16
2018-08-17T11:49:47.337Z,19.21
2018-08-17T11:50:47.134Z,19.12
2018-08-17T11:51:47.351Z,19.14
2018-08-17T11:52:47.138Z,19.21
2018-08-17T11:53:47.210Z,19.15
2018-08-17T11:54:47.157Z,19.26
2018-08-17T11:55:47.142Z,19.21
2018-08-17T11:56:47.365Z,19.36
2018-08-17T11:57:47.163Z,19.39
2018-08-17T11:58:47.184Z,19.34
2018-08-17T11:59:47.355Z,19.39
2018-08-17T12:00:47.153Z,19.40
2018-08-17T12:01:47.389Z,19.40
2018-08-17T12:02:47.371Z,19.45
2018-08-17T12:03:47.162Z,19.39
2018-08-17T12:04:47.167Z,19.21
2018-08-17T12:05:47.165Z,19.19
2018-08-17T12:06:47.196Z,19.22
2018-08-17T12:07:47.373Z,19.18
2018-08-17T12:08:47.374Z,19.16
2018-08-17T12:09:47.176Z,19.19
2018-08-17T12:10:47.179Z,19.16
2018-08-17T12:11:47.177Z,19.19
2018-08-17T12:12:47.179Z,19.18
2018-08-17T12:13:47.182Z,19.15
2018-08-17T12:14:47.197Z,19.19
2018-08-17T12:15:47.184Z,19.16
2018-08-17T12:16:47.186Z,19.14
2018-08-17T12:17:47.189Z,19.12
2018-08-17T12:18:47.291Z,19.15
2018-08-17T12:19:47.195Z,19.18
2018-08-17T12:20:47.205Z,19.14
2018-08-17T12:21:47.211Z,19.09
2018-08-17T12:22:47.207Z,19.09
2018-08-17T12:23:47.215Z,19.15
2018-08-17T12:24:47.234Z,19.14
2018-08-17T12:25:47.213Z,19.18
2018-08-17T12:26:47.205Z,19.19
2018-08-17T12:27:47.418Z,19.21
2018-08-17T12:28:47.221Z,19.22
2018-08-17T12:29:47.210Z,19.22
2018-08-17T12:30:47.212Z,19.26
2018-08-17T12:31:47.235Z,19.21
2018-08-17T12:32:47.225Z,19.19
2018-08-17T12:33:47.217Z,19.27
2018-08-17T12:34:47.233Z,19.37
2018-08-17T12:35:47.219Z,19.33
2018-08-17T12:36:47.243Z,19.34
2018-08-17T12:37:47.234Z,19.52
2018-08-17T12:38:47.235Z,19.41
2018-08-17T12:39:47.236Z,19.49
2018-08-17T12:40:47.228Z,19.51
2018-08-17T12:41:47.261Z,19.48
2018-08-17T12:42:47.445Z,19.48
2018-08-17T12:43:47.449Z,19.44
2018-08-17T12:44:47.251Z,19.40
2018-08-17T12:45:47.295Z,19.47
2018-08-17T12:46:47.459Z,19.48
2018-08-17T12:47:47.271Z,19.45
2018-08-17T12:48:47.247Z,19.47
2018-08-17T12:49:47.245Z,19.52
2018-08-17T12:50:47.453Z,19.58
2018-08-17T12:51:47.251Z,19.62
2018-08-17T12:52:47.469Z,19.67